As Valentia — A8SO8 — position and weather

sailwx.info

Track history (hours):
 
Tides and Currents Weather Stations Pressure Air Temp Water Temp Dewpoint Dewpoint Depression Visibility Wind Speed Wind Dir Waves Ship Positions

As Valentia

Last reported at 2015-May-23 12:00 UTC. Time now 2015-May-25 07:32 UTC.
Position N 03°42' E 119°30'.

Length 190 m; draft 6.7 m.

Type: Cargo ship. MMSI: 636091770.

Wind from 150 at 7 knots

Waves 0.5 meters (2 feet), 5 second period

Barometer 1009.0 mb
Air temperature 30.0 ° C
Visibility: greater than 10.8 NM
Dewpoint 24.6 ° C
Water temperature 30.0 ° C

Date/timePositionNaut miles runAvg speedWind from/ knotsBaromVisibWave heightAir tempDewpointWater temp
2015-May-23 12:00N 03°42' E 119°30'38413.2 150 / 71009.010.8 0.530.024.630.0
2015-May-22 07:00N 10°00' E 120°36'   1009.010.8 32.025.3
2015-May-19 19:21N 22°19' E 119°54'1012.6
2015-May-19 18:34N 22°29' E 119°54'1312.6
2015-May-19 17:34N 22°42' E 119°54'7210.2
2015-May-19 10:33N 23°53' E 119°45'1613.5
2015-May-19 09:20N 23°57' E 119°27'1112.1
2015-May-19 08:25N 24°06' E 119°21'4213.0
2015-May-19 05:11N 24°46' E 119°07'813.0
2015-May-19 04:33N 24°53' E 119°03'10 9.8
2015-May-19 03:33N 25°03' E 119°02'5 1.0
2015-May-18 23:05N 25°08' E 119°01'0 0.0
2015-May-18 18:29N 25°07' E 119°01'0 0.1
2015-May-18 16:05N 25°08' E 119°01'0 0.0
2015-May-18 08:11N 25°07' E 119°01'0 0.0
2015-May-17 22:23N 25°08' E 119°01'0 0.1
2015-May-17 21:17N 25°08' E 119°01'0 0.0
2015-May-17 15:05N 25°08' E 119°01'0 0.0
2015-May-17 12:11N 25°08' E 119°01'0 0.0
2015-May-17 10:14N 25°08' E 119°01'0 0.0
2015-May-17 03:11N 25°07' E 119°01'0 0.1
2015-May-17 02:29N 25°07' E 119°00'0 0.1
2015-May-17 01:05N 25°08' E 119°01'0 0.1
2015-May-16 20:17N 25°07' E 119°01'0 0.0
2015-May-16 15:17N 25°07' E 119°01'0 0.0
2015-May-16 05:29N 25°07' E 119°01'0 0.0
2015-May-16 04:23N 25°07' E 119°01'0 0.0
2015-May-15 13:17N 25°08' E 119°01'0 0.0
2015-May-15 08:05N 25°08' E 119°01'0 0.0
2015-May-15 00:23N 25°08' E 119°01'0 0.0
2015-May-14 16:23N 25°07' E 119°01'0 0.0
2015-May-14 06:23N 25°08' E 119°01'0 0.2
2015-May-14 05:23N 25°07' E 119°01'0 0.0
2015-May-13 20:17N 25°08' E 119°01'0 0.1
2015-May-13 17:05N 25°07' E 119°01'0 0.0
2015-May-13 14:23N 25°07' E 119°01'0 0.0
2015-May-13 13:23N 25°07' E 119°01'  
Track history (hours):
 
Tides and Currents Weather Stations Pressure Air Temp Water Temp Dewpoint Dewpoint Depression Visibility Wind Speed Wind Dir Waves Ship Positions

As Valentia

Last reported at 2015-May-23 12:00 UTC. Time now 2015-May-25 07:32 UTC.
Position N 03°42' E 119°30'.

Length 190 m; draft 6.7 m.

Type: Cargo ship. MMSI: 636091770.

Wind from 150 at 7 knots

Waves 0.5 meters (2 feet), 5 second period

Barometer 1009.0 mb
Air temperature 30.0 ° C
Visibility: greater than 10.8 NM
Dewpoint 24.6 ° C
Water temperature 30.0 ° C

Date/timePositionNaut miles runAvg speedWind from/ knotsBaromVisibWave heightAir tempDewpointWater temp
2015-May-23 12:00N 03°42' E 119°30'38413.2 150 / 71009.010.8 0.530.024.630.0
2015-May-22 07:00N 10°00' E 120°36'   1009.010.8 32.025.3
2015-May-19 19:21N 22°19' E 119°54'1012.6
2015-May-19 18:34N 22°29' E 119°54'1312.6
2015-May-19 17:34N 22°42' E 119°54'7210.2
2015-May-19 10:33N 23°53' E 119°45'1613.5
2015-May-19 09:20N 23°57' E 119°27'1112.1
2015-May-19 08:25N 24°06' E 119°21'4213.0
2015-May-19 05:11N 24°46' E 119°07'813.0
2015-May-19 04:33N 24°53' E 119°03'10 9.8
2015-May-19 03:33N 25°03' E 119°02'5 1.0
2015-May-18 23:05N 25°08' E 119°01'0 0.0
2015-May-18 18:29N 25°07' E 119°01'0 0.1
2015-May-18 16:05N 25°08' E 119°01'0 0.0
2015-May-18 08:11N 25°07' E 119°01'0 0.0
2015-May-17 22:23N 25°08' E 119°01'0 0.1
2015-May-17 21:17N 25°08' E 119°01'0 0.0
2015-May-17 15:05N 25°08' E 119°01'0 0.0
2015-May-17 12:11N 25°08' E 119°01'0 0.0
2015-May-17 10:14N 25°08' E 119°01'0 0.0
2015-May-17 03:11N 25°07' E 119°01'0 0.1
2015-May-17 02:29N 25°07' E 119°00'0 0.1
2015-May-17 01:05N 25°08' E 119°01'0 0.1
2015-May-16 20:17N 25°07' E 119°01'0 0.0
2015-May-16 15:17N 25°07' E 119°01'0 0.0
2015-May-16 05:29N 25°07' E 119°01'0 0.0
2015-May-16 04:23N 25°07' E 119°01'0 0.0
2015-May-15 13:17N 25°08' E 119°01'0 0.0
2015-May-15 08:05N 25°08' E 119°01'0 0.0
2015-May-15 00:23N 25°08' E 119°01'0 0.0
2015-May-14 16:23N 25°07' E 119°01'0 0.0
2015-May-14 06:23N 25°08' E 119°01'0 0.2
2015-May-14 05:23N 25°07' E 119°01'0 0.0
2015-May-13 20:17N 25°08' E 119°01'0 0.1
2015-May-13 17:05N 25°07' E 119°01'0 0.0
2015-May-13 14:23N 25°07' E 119°01'0 0.0
2015-May-13 13:23N 25°07' E 119°01'  

Dump ship's entire track history